Time;durP1;ratioP1;P1;durP2;ratioP2;P2;SDS_P1;SDS_P2;PMS_P1;PMS_P2;Temp;Humidity;BMP_temperature;BMP_pressure;BME280_temperature;BME280_humidity;BME280_pressure;Samples;Min_cycle;Max_cycle;Signal;HPM_P1;HPM_P2
2022/11/11 00:01:20;;;;;;;15.43;6.47;;;12.10;99.90;;;;;;6119750;23;20084;-77
2022/11/11 00:03:46;;;;;;;14.80;8.10;;;12.10;99.90;;;;;;6119304;23;20337;-77
2022/11/11 00:06:15;;;;;;;13.57;7.20;;;12.10;99.90;;;;;;6095077;23;20101;-77
2022/11/11 00:08:45;;;;;;;13.45;7.15;;;12.00;99.90;;;;;;6095293;23;20073;-77
2022/11/11 00:11:12;;;;;;;11.85;6.63;;;;;;;;;;6120223;23;20029;-77
2022/11/11 00:13:40;;;;;;;11.55;7.63;;;;;;;;;;6119106;23;20017;-77
2022/11/11 00:16:08;;;;;;;17.80;8.13;;;;;;;;;;6119687;23;20017;-77
2022/11/11 00:27:10;;;;;;;14.43;8.57;;;;;;;;;;6120815;23;20017;-76
2022/11/11 00:29:37;;;;;;;14.32;8.00;;;;;;;;;;6120678;23;20014;-76
2022/11/11 00:32:21;;;;;;;15.95;8.90;;;;;;;;;;6120806;23;20065;-76
2022/11/11 00:37:33;;;;;;;18.60;9.57;;;;;;;;;;6120602;23;20437;-76
2022/11/11 00:39:59;;;;;;;18.88;9.00;;;;;;;;;;6120791;23;20018;-75
2022/11/11 00:42:26;;;;;;;12.90;8.95;;;;;;;;;;6120071;23;20085;-75
2022/11/11 00:44:52;;;;;;;14.70;8.63;;;;;;;;;;6120665;23;20334;-76
2022/11/11 00:52:52;;;;;;;19.40;8.35;;;;;;;;;;6120723;23;20049;-76
2022/11/11 00:55:18;;;;;;;13.13;8.88;;;;;;;;;;6120504;23;20029;-76
2022/11/11 00:57:44;;;;;;;24.60;8.88;;;;;;;;;;6120194;23;20022;-76
2022/11/11 01:00:11;;;;;;;12.38;8.43;;;;;;;;;;6120740;23;20352;-76
2022/11/11 01:02:37;;;;;;;18.30;9.15;;;;;;;;;;6119999;23;20022;-76
2022/11/11 01:05:03;;;;;;;19.17;9.32;;;;;;;;;;6119760;23;20559;-76
2022/11/11 01:07:29;;;;;;;18.30;8.52;;;;;;;;;;6071788;23;20614;-76
2022/11/11 01:09:55;;;;;;;15.45;8.65;;;;;;;;;;6095579;23;20049;-76
2022/11/11 01:12:21;;;;;;;12.35;8.48;;;;;;;;;;6122492;23;20100;-76
2022/11/11 01:14:47;;;;;;;12.32;8.80;;;;;;;;;;6121950;23;20018;-76
2022/11/11 01:17:13;;;;;;;18.02;9.13;;;;;;;;;;6097516;23;20076;-76
2022/11/11 01:19:39;;;;;;;18.33;9.40;;;;;;;;;;6097311;23;20025;-76
2022/11/11 01:22:05;;;;;;;16.08;9.15;;;;;;;;;;6121987;23;20014;-76
2022/11/11 01:24:31;;;;;;;14.93;8.65;;;;;;;;;;6122179;23;20018;-76
2022/11/11 01:26:57;;;;;;;17.25;9.23;;;;;;;;;;6122197;23;20022;-76
2022/11/11 01:29:24;;;;;;;15.38;8.70;;;;;;;;;;6121601;23;20105;-76
2022/11/11 01:31:50;;;;;;;18.85;10.05;;;;;;;;;;6098525;23;20113;-76
2022/11/11 01:34:16;;;;;;;18.42;8.93;;;;;;;;;;6122048;23;20018;-76
2022/11/11 01:36:42;;;;;;;15.30;9.40;;;;;;;;;;6122319;23;20022;-76
2022/11/11 01:39:09;;;;;;;16.45;9.10;;;;;;;;;;6098728;23;20018;-76
2022/11/11 01:41:36;;;;;;;16.90;10.02;;;;;;;;;;6122458;23;20106;-76
2022/11/11 01:44:13;;;;;;;29.30;10.98;;;;;;;;;;6098098;23;20705;-76
2022/11/11 01:46:51;;;;;;;11.75;8.15;;;;;;;;;;6121353;23;20478;-77
2022/11/11 01:49:33;;;;;;;13.05;8.18;;;;;;;;;;6122085;23;20496;-76
2022/11/11 01:52:02;;;;;;;20.77;9.18;;;;;;;;;;6122408;23;20022;-76
2022/11/11 01:54:37;;;;;;;15.00;9.88;;;;;;;;;;6096140;23;20025;-76
2022/11/11 01:57:10;;;;;;;25.33;10.55;;;;;;;;;;6121740;23;20039;-76
2022/11/11 01:59:39;;;;;;;17.55;9.27;;;;;;;;;;6122140;23;20021;-76
2022/11/11 02:02:11;;;;;;;13.48;9.15;;;;;;;;;;6122006;23;20025;-76
2022/11/11 02:07:22;;;;;;;28.20;11.65;;;;;;;;;;6077149;23;20151;-76
2022/11/11 02:09:50;;;;;;;16.00;9.48;;;;;;;;;;6073474;23;20014;-76
2022/11/11 02:15:01;;;;;;;18.95;11.00;;;;;;;;;;6120838;23;20080;-76
2022/11/11 02:17:29;;;;;;;20.10;11.73;;;;;;;;;;6096896;23;20092;-76
2022/11/11 02:19:57;;;;;;;21.85;11.43;;;;;;;;;;6122022;23;20484;-76
2022/11/11 02:22:30;;;;;;;20.67;11.02;;;;;;;;;;6097162;23;20508;-76
2022/11/11 02:24:58;;;;;;;17.25;11.25;;;;;;;;;;6121792;23;20024;-76
2022/11/11 02:27:24;;;;;;;17.90;11.27;;;;;;;;;;6097722;23;20014;-77
2022/11/11 02:29:52;;;;;;;18.80;12.13;;;;;;;;;;6122454;23;20013;-76
2022/11/11 02:32:18;;;;;;;19.10;12.30;;;;;;;;;;6122581;23;20010;-76
2022/11/11 02:34:44;;;;;;;17.92;12.63;;;;;;;;;;6096938;23;20050;-76
2022/11/11 02:37:11;;;;;;;22.63;12.82;;;;;;;;;;6122134;23;20022;-76
2022/11/11 02:39:41;;;;;;;26.77;12.38;;;;;;;;;;6121740;23;20104;-77
2022/11/11 02:42:09;;;;;;;19.35;12.95;;;;;;;;;;6121158;23;20065;-77
2022/11/11 02:44:36;;;;;;;23.85;12.68;;;;;;;;;;6121909;23;20018;-76
2022/11/11 02:47:03;;;;;;;19.50;12.63;;;;;;;;;;6121952;23;20101;-76
2022/11/11 02:49:29;;;;;;;24.85;14.93;;;;;;;;;;6121404;23;20069;-76
2022/11/11 02:51:55;;;;;;;23.80;12.63;;;;;;;;;;6121595;23;20061;-76
2022/11/11 02:54:21;;;;;;;19.17;14.20;;;;;;;;;;6097903;23;20021;-76
2022/11/11 02:59:31;;;;;;;29.35;15.10;;;;;;;;;;6101040;23;20444;-76
2022/11/11 03:01:58;;;;;;;23.60;14.30;;;;;;;;;;6121683;23;20029;-76
2022/11/11 03:04:24;;;;;;;21.83;15.00;;;;;;;;;;6120922;23;20026;-76
2022/11/11 03:06:49;;;;;;;22.60;14.25;;;12.00;99.90;;;;;;6120022;23;20021;-76
2022/11/11 03:09:15;;;;;;;28.02;15.95;;;;;;;;;;6095753;23;20020;-77
2022/11/11 03:11:42;;;;;;;19.42;12.68;;;;;;;;;;6121079;23;20675;-76
2022/11/11 03:14:08;;;;;;;22.70;16.05;;;;;;;;;;6096173;23;20018;-76
2022/11/11 03:19:18;;;;;;;21.00;13.77;;;;;;;;;;6120357;23;20097;-77
2022/11/11 03:21:45;;;;;;;22.38;15.63;;;;;;;;;;6097644;23;20014;-77
2022/11/11 03:24:11;;;;;;;24.42;17.42;;;;;;;;;;6121439;23;20022;-77
2022/11/11 03:26:37;;;;;;;30.73;18.83;;;;;;;;;;6121119;23;20014;-77
2022/11/11 03:29:04;;;;;;;26.98;17.27;;;;;;;;;;6095776;23;20013;-77
2022/11/11 03:31:30;;;;;;;29.83;18.42;;;;;;;;;;6121140;23;20191;-77
2022/11/11 03:34:17;;;;;;;26.00;17.35;;;;;;;;;;6097289;23;20021;-77
2022/11/11 03:39:26;;;;;;;28.90;19.02;;;;;;;;;;6120872;23;20025;-77
2022/11/11 03:41:53;;;;;;;29.60;18.08;;;;;;;;;;6121057;23;20014;-77
2022/11/11 03:44:19;;;;;;;29.13;18.85;;;;;;;;;;6121210;23;20127;-77
2022/11/11 03:46:45;;;;;;;29.98;20.05;;;;;;;;;;6120717;23;20412;-77
2022/11/11 03:49:11;;;;;;;26.00;18.83;;;;;;;;;;6120706;23;20020;-77
2022/11/11 03:51:37;;;;;;;26.42;18.92;;;;;;;;;;6121218;23;20014;-77
2022/11/11 03:54:03;;;;;;;26.42;19.65;;;;;;;;;;6120842;23;20068;-77
2022/11/11 03:56:29;;;;;;;27.67;20.10;;;;;;;;;;6121070;23;20352;-77
2022/11/11 03:58:55;;;;;;;26.90;18.40;;;;;;;;;;6096591;23;20021;-77
2022/11/11 04:12:22;;;;;;;32.30;21.73;;;;;;;;;;6100236;23;20021;-77
2022/11/11 04:17:33;;;;;;;30.80;20.73;;;;;;;;;;6119421;23;20014;-77
2022/11/11 04:22:44;;;;;;;30.48;21.13;;;;;;;;;;6096925;23;20020;-77
2022/11/11 04:30:43;;;;;;;32.05;21.08;;;;;;;;;;6100523;23;20018;-77
2022/11/11 04:33:09;;;;;;;35.10;21.15;;;;;;;;;;6096332;23;20014;-77
2022/11/11 04:35:36;;;;;;;30.70;19.70;;;;;;;;;;6121043;23;20094;-77
2022/11/11 04:41:05;;;;;;;31.98;21.48;;;;;;;;;;6120024;23;20010;-77
2022/11/11 04:43:31;;;;;;;34.45;21.00;;;;;;;;;;6095239;23;20057;-77
2022/11/11 04:45:58;;;;;;;33.22;22.65;;;;;;;;;;6121103;23;20097;-77
2022/11/11 04:48:24;;;;;;;35.28;22.52;;;;;;;;;;6122812;23;20018;-77
2022/11/11 04:50:50;;;;;;;38.17;23.50;;;;;;;;;;6122627;23;20604;-77
2022/11/11 04:53:16;;;;;;;32.35;22.70;;;;;;;;;;6123024;23;20041;-77
2022/11/11 04:58:30;;;;;;;37.10;22.77;;;;;;;;;;6122531;23;20013;-77
2022/11/11 05:00:56;;;;;;;32.00;23.65;;;;;;;;;;6122573;23;20014;-77
2022/11/11 05:03:22;;;;;;;33.17;22.83;;;;;;;;;;6097050;23;20033;-77
2022/11/11 05:11:21;;;;;;;33.35;23.33;;;;;;;;;;6122525;23;20073;-77
2022/11/11 05:22:12;;;;;;;34.65;22.83;;;;;;;;;;6121587;23;20028;-77
2022/11/11 05:27:23;;;;;;;32.20;22.48;;;;;;;;;;6122312;23;20009;-77
2022/11/11 05:29:49;;;;;;;33.97;21.58;;;;;;;;;;6122066;23;20010;-76
2022/11/11 05:32:19;;;;;;;34.70;23.63;;;;;;;;;;6122096;23;20097;-77
2022/11/11 05:34:45;;;;;;;36.55;23.23;;;;;;;;;;6121953;23;20017;-78
2022/11/11 05:37:11;;;;;;;29.92;21.75;;;;;;;;;;6122877;23;20325;-77
2022/11/11 05:39:37;;;;;;;38.70;23.35;;;;;;;;;;6097929;23;20334;-77
2022/11/11 05:42:03;;;;;;;32.80;22.67;;;;;;;;;;6122353;23;20018;-77
2022/11/11 05:44:29;;;;;;;32.05;20.83;;;;;;;;;;6122236;23;20022;-77
2022/11/11 05:46:57;;;;;;;32.88;22.65;;;;;;;;;;6098165;23;20053;-77
2022/11/11 05:49:24;;;;;;;32.78;22.33;;;;;;;;;;6098009;23;20018;-77
2022/11/11 05:51:50;;;;;;;30.60;22.67;;;;;;;;;;6120839;23;20085;-77
2022/11/11 05:54:17;;;;;;;33.58;22.20;;;;;;;;;;6121300;23;20025;-77
2022/11/11 05:56:43;;;;;;;34.25;21.92;;;;;;;;;;6097166;23;20096;-77
2022/11/11 05:59:09;;;;;;;31.80;22.50;;;;;;;;;;6120828;23;20495;-77
2022/11/11 06:01:36;;;;;;;33.53;21.48;;;;;;;;;;6097439;23;20352;-77
2022/11/11 06:04:02;;;;;;;40.50;22.77;;;;;;;;;;6094700;23;20053;-76
2022/11/11 06:06:28;;;;;;;37.45;23.20;;;;;;;;;;6119253;23;20045;-77
2022/11/11 06:08:54;;;;;;;35.03;24.30;;;;;;;;;;6121639;23;20014;-76
2022/11/11 06:11:20;;;;;;;32.55;22.10;;;;;;;;;;6095766;23;20014;-77
2022/11/11 06:13:47;;;;;;;34.28;23.27;;;;;;;;;;6119765;23;20050;-77
2022/11/11 06:16:13;;;;;;;31.88;21.02;;;;;;;;;;6119824;23;20675;-77
2022/11/11 06:18:39;;;;;;;37.00;21.15;;;;;;;;;;6047935;23;20047;-77
2022/11/11 06:21:05;;;;;;;32.97;21.77;;;;;;;;;;6120504;23;20025;-76
2022/11/11 06:23:32;;;;;;;32.15;21.02;;;;;;;;;;6094339;23;20364;-77
2022/11/11 06:26:13;;;;;;;32.00;21.20;;;;;;;;;;6095813;23;20014;-77
2022/11/11 06:28:39;;;;;;;32.42;20.75;;;;;;;;;;6119359;23;20424;-77
2022/11/11 06:31:09;;;;;;;37.35;21.17;;;;;;;;;;6096566;23;20021;-77
2022/11/11 06:33:43;;;;;;;33.90;20.42;;;;;;;;;;6119191;23;20018;-80
2022/11/11 06:36:12;;;;;;;35.50;20.95;;;;;;;;;;6119289;23;20069;-76
2022/11/11 06:38:38;;;;;;;32.17;20.40;;;;;;;;;;6118076;23;20060;-76
2022/11/11 06:41:04;;;;;;;32.08;20.88;;;;;;;;;;6096247;23;20018;-76
2022/11/11 06:43:30;;;;;;;36.63;20.63;;;;;;;;;;6118911;23;20060;-76
2022/11/11 06:45:56;;;;;;;33.30;20.98;;;;;;;;;;6119273;23;20479;-76
2022/11/11 06:48:23;;;;;;;33.53;21.15;;;;;;;;;;6094287;23;20014;-76
2022/11/11 06:50:50;;;;;;;34.63;22.00;;;;;;;;;;6118916;23;20053;-78
2022/11/11 06:53:17;;;;;;;34.28;21.25;;;;;;;;;;6093984;23;20010;-77
2022/11/11 06:55:43;;;;;;;33.15;22.35;;;;;;;;;;6094610;23;20487;-77
2022/11/11 06:58:16;;;;;;;31.80;22.05;;;;;;;;;;6120472;23;20088;-77
2022/11/11 07:00:43;;;;;;;30.75;20.85;;;;;;;;;;6120791;23;20144;-78
2022/11/11 07:03:10;;;;;;;35.03;22.60;;;;;;;;;;6122323;23;20010;-78
2022/11/11 07:05:36;;;;;;;34.63;23.42;;;;;;;;;;6120845;23;20014;-77
2022/11/11 07:08:03;;;;;;;33.67;21.98;;;;;;;;;;6118114;23;20377;-78
2022/11/11 07:10:30;;;;;;;37.88;22.85;;;;;;;;;;6119012;23;20014;-77
2022/11/11 07:12:56;;;;;;;33.72;23.20;;;;;;;;;;6119676;23;20014;-78
2022/11/11 07:15:22;;;;;;;36.88;20.95;;;;;;;;;;6120191;23;20053;-77
2022/11/11 07:17:48;;;;;;;30.92;20.33;;;;;;;;;;6119734;23;20054;-77
2022/11/11 07:20:14;;;;;;;29.40;20.65;;;;;;;;;;6120550;23;20022;-77
2022/11/11 07:22:40;;;;;;;30.85;20.48;;;;;;;;;;6094776;23;20014;-76
2022/11/11 07:25:06;;;;;;;34.08;19.70;;;;;;;;;;6118494;23;20456;-76
2022/11/11 07:27:36;;;;;;;34.13;21.90;;;;;;;;;;6119438;23;20471;-76
2022/11/11 07:30:02;;;;;;;30.70;21.25;;;;;;;;;;6095035;23;20014;-76
2022/11/11 07:32:28;;;;;;;29.58;20.70;;;;;;;;;;6118264;23;20088;-76
2022/11/11 07:34:54;;;;;;;28.77;20.23;;;;;;;;;;6119758;23;20018;-77
2022/11/11 07:37:20;;;;;;;32.85;22.00;;;;;;;;;;6120786;23;20318;-76
2022/11/11 07:39:46;;;;;;;27.25;19.48;;;;;;;;;;6095258;23;20014;-78
2022/11/11 07:42:12;;;;;;;30.20;21.30;;;;;;;;;;6094194;23;20018;-78
2022/11/11 07:44:38;;;;;;;28.73;19.98;;;;;;;;;;6119906;23;20024;-78
2022/11/11 07:47:04;;;;;;;29.85;19.85;;;;;;;;;;6093263;23;20472;-77
2022/11/11 07:49:31;;;;;;;28.85;20.17;;;;;;;;;;6119611;23;20017;-77
2022/11/11 07:51:57;;;;;;;35.08;23.13;;;;;;;;;;6120684;23;20013;-77
2022/11/11 07:54:23;;;;;;;29.83;21.23;;;;;;;;;;6120189;23;20029;-77
2022/11/11 07:56:49;;;;;;;36.17;22.00;;;;;;;;;;6095500;23;20018;-77
2022/11/11 07:59:15;;;;;;;31.58;20.60;;;;;;;;;;6094769;23;20383;-77
2022/11/11 08:01:41;;;;;;;32.08;21.58;;;;;;;;;;6120069;23;20029;-77
2022/11/11 08:04:07;;;;;;;37.28;21.25;;;;;;;;;;6095188;23;20010;-77
2022/11/11 08:06:33;;;;;;;29.80;21.13;;;;;;;;;;6094482;23;20018;-77
2022/11/11 08:08:59;;;;;;;32.72;21.85;;;;;;;;;;6120098;23;20045;-77
2022/11/11 08:14:10;;;;;;;33.95;20.83;;;;;;;;;;6094625;23;20479;-78
2022/11/11 08:16:36;;;;;;;30.35;22.27;;;;;;;;;;6092843;23;20101;-78
2022/11/11 08:19:02;;;;;;;29.83;22.35;;;;;;;;;;6118215;23;20026;-80
2022/11/11 08:21:28;;;;;;;32.42;21.80;;;;;;;;;;6117620;23;20044;-80
2022/11/11 08:23:54;;;;;;;34.10;23.92;;;;;;;;;;6092119;23;20021;-80
2022/11/11 08:26:21;;;;;;;40.10;23.48;;;;;;;;;;6116681;23;20045;-80
2022/11/11 08:28:47;;;;;;;43.95;24.20;;;;;;;;;;6069396;23;20018;-79
2022/11/11 08:31:13;;;;;;;38.40;22.92;;;;;;;;;;6092903;23;20014;-79
2022/11/11 08:33:39;;;;;;;42.53;24.73;;;;;;;;;;6117019;23;20018;-79
2022/11/11 08:36:06;;;;;;;36.85;23.55;;;;;;;;;;6118396;23;20017;-80
2022/11/11 08:38:33;;;;;;;36.78;22.90;;;;;;;;;;6117665;23;20099;-79
2022/11/11 08:41:00;;;;;;;38.20;23.73;;;;;;;;;;6093312;23;20018;-80
2022/11/11 08:43:26;;;;;;;43.15;23.45;;;;;;;;;;6072371;23;20014;-80
2022/11/11 08:45:53;;;;;;;38.13;23.20;;;;;;;;;;6120331;23;20430;-80
2022/11/11 08:48:19;;;;;;;38.10;24.13;;;;;;;;;;6117047;23;20040;-80
2022/11/11 08:50:45;;;;;;;42.83;25.10;;;;;;;;;;6093647;23;20017;-80
2022/11/11 08:53:11;;;;;;;32.28;22.88;;;;;;;;;;6117339;23;20014;-80
2022/11/11 08:55:38;;;;;;;31.35;22.70;;;;;;;;;;6091951;23;20013;-80
2022/11/11 08:58:05;;;;;;;40.47;25.13;;;;;;;;;;6116538;23;20092;-80
2022/11/11 09:00:31;;;;;;;35.03;24.27;;;;;;;;;;6114781;23;20018;-80
2022/11/11 09:03:01;;;;;;;34.90;22.58;;;;;;;;;;6068861;23;20017;-80
2022/11/11 09:05:28;;;;;;;34.35;24.27;;;;;;;;;;6091200;23;20041;-80
2022/11/11 09:07:54;;;;;;;39.47;23.77;;;;;;;;;;6115803;23;20021;-80
2022/11/11 09:10:20;;;;;;;34.05;23.08;;;;;;;;;;6116302;23;20018;-80
2022/11/11 09:12:46;;;;;;;31.67;22.63;;;;;;;;;;6069028;23;20032;-80
2022/11/11 09:15:12;;;;;;;35.92;22.48;;;;;;;;;;6115745;23;20076;-80
2022/11/11 09:17:38;;;;;;;32.22;22.23;;;;;;;;;;6093954;23;20049;-79
2022/11/11 09:20:05;;;;;;;34.75;22.83;;;;;;;;;;6118075;23;20017;-79
2022/11/11 09:22:32;;;;;;;33.13;21.73;;;;;;;;;;6118027;23;20025;-79
2022/11/11 09:24:58;;;;;;;30.77;22.25;;;;;;;;;;6092242;23;20014;-79
2022/11/11 09:27:24;;;;;;;42.63;24.13;;;;;;;;;;6117113;23;20014;-79
2022/11/11 09:29:50;;;;;;;38.78;24.05;;;;;;;;;;6091945;23;20010;-79
2022/11/11 09:32:16;;;;;;;40.53;22.77;;;;;;;;;;6117483;23;20449;-79
2022/11/11 09:34:42;;;;;;;41.13;24.85;;;;;;;;;;6118668;23;20044;-79
2022/11/11 09:37:08;;;;;;;37.88;23.92;;;;;;;;;;6118656;23;20437;-79
2022/11/11 09:39:34;;;;;;;35.13;22.63;;;;;;;;;;6118038;23;20029;-79
2022/11/11 09:42:27;;;;;;;36.15;22.30;;;;;;;;;;6118584;23;20094;-79
2022/11/11 09:44:53;;;;;;;34.40;24.60;;;;;;;;;;6074787;23;20101;-79
2022/11/11 09:47:28;;;;;;;37.40;23.88;;;;;;;;;;6117389;23;20018;-79
2022/11/11 09:50:06;;;;;;;33.97;22.45;;;;;;;;;;6094160;23;20014;-79
2022/11/11 09:52:39;;;;;;;33.78;24.33;;;;;;;;;;6118823;23;20093;-77
2022/11/11 09:55:13;;;;;;;34.85;23.67;;;;;;;;;;6117532;23;20017;-77
2022/11/11 09:57:45;;;;;;;42.13;22.98;;;;;;;;;;6119050;23;20061;-77
2022/11/11 10:00:18;;;;;;;37.42;24.10;;;;;;;;;;6119012;23;20022;-78
2022/11/11 10:02:50;;;;;;;33.65;21.83;;;;;;;;;;6118704;23;20014;-79
2022/11/11 10:05:20;;;;;;;33.88;22.75;;;;;;;;;;6119946;23;20196;-79
2022/11/11 10:07:52;;;;;;;35.40;22.30;;;;;;;;;;6118833;23;20022;-80
2022/11/11 10:10:37;;;;;;;29.50;20.38;;;;;;;;;;6070755;23;20088;-80
2022/11/11 10:13:11;;;;;;;34.35;21.60;;;;;;;;;;6094582;23;20014;-80
2022/11/11 10:15:41;;;;;;;37.33;23.77;;;;;;;;;;6118384;23;20322;-80
2022/11/11 10:18:19;;;;;;;37.70;23.33;;;;;;;;;;6093851;23;20029;-80
2022/11/11 10:20:48;;;;;;;32.42;20.48;;;;;;;;;;6119213;23;20018;-80
2022/11/11 10:23:16;;;;;;;35.35;23.23;;;;;;;;;;6119483;23;20108;-80
2022/11/11 10:25:46;;;;;;;34.90;23.20;;;;;;;;;;6117503;23;20017;-80
2022/11/11 10:28:16;;;;;;;38.10;22.35;;;;;;;;;;6094531;23;20305;-80
2022/11/11 10:30:43;;;;;;;28.90;20.88;;;;;;;;;;6118468;23;20093;-80
2022/11/11 10:33:13;;;;;;;33.67;22.65;;;;;;;;;;6118216;23;20033;-80
2022/11/11 10:35:40;;;;;;;32.63;21.52;;;;;;;;;;6116788;23;20021;-80
2022/11/11 10:38:09;;;;;;;31.98;20.48;;;;;;;;;;6118175;23;20525;-79
2022/11/11 10:40:41;;;;;;;33.67;22.35;;;;;;;;;;6069589;23;20472;-80
2022/11/11 10:43:22;;;;;;;33.67;21.05;;;;;;;;;;6117451;23;20093;-80
2022/11/11 10:45:58;;;;;;;34.00;21.33;;;;;;;;;;6118365;23;20018;-80
2022/11/11 10:48:31;;;;;;;32.67;19.83;;;;;;;;;;6092501;23;20014;-80
2022/11/11 10:50:57;;;;;;;;;;;;;;;;;;6118686;23;20017;-80
2022/11/11 10:53:29;;;;;;;31.58;20.77;;;;;;;;;;6119222;23;19913;-80
2022/11/11 10:55:59;;;;;;;30.50;19.97;;;;;;;;;;6118063;23;20010;-80
2022/11/11 10:58:34;;;;;;;27.88;20.27;;;;;;;;;;6092580;23;20241;-80
2022/11/11 11:01:01;;;;;;;31.52;20.55;;;;;;;;;;6117486;23;20050;-80
2022/11/11 11:03:33;;;;;;;28.27;19.35;;;;;;;;;;6093329;23;20036;-80
2022/11/11 11:06:15;;;;;;;33.33;20.95;;;;;;;;;;6117228;23;20014;-80
2022/11/11 11:08:47;;;;;;;29.88;20.58;;;;;;;;;;6117435;23;20125;-80
2022/11/11 11:11:21;;;;;;;35.03;20.85;;;;;;;;;;6116782;23;20010;-79
2022/11/11 11:13:47;;;;;;;31.50;21.83;;;;;;;;;;6117419;23;20403;-79
2022/11/11 11:16:16;;;;;;;29.02;21.33;;;;;;;;;;6117321;23;20018;-79
2022/11/11 11:18:43;;;;;;;27.08;19.23;;;;;;;;;;6092328;23;20060;-79
2022/11/11 11:21:09;;;;;;;33.97;21.35;;;;;;;;;;6116101;23;20041;-79
2022/11/11 11:23:42;;;;;;;37.30;21.42;;;;;;;;;;6117064;23;20017;-79
2022/11/11 11:26:09;;;;;;;33.60;20.52;;;;;;;;;;6117420;23;20017;-79
2022/11/11 11:28:35;;;;;;;32.38;20.63;;;;;;;;;;6119013;23;20345;-79
2022/11/11 11:31:03;;;;;;;29.20;19.77;;;;;;;;;;6116976;23;20018;-79
2022/11/11 11:33:49;;;;;;;30.60;19.33;;;;;;;;;;6118123;23;20029;-79
2022/11/11 11:36:16;;;;;;;39.90;20.40;;;;;;;;;;6094059;23;20398;-80
2022/11/11 11:38:46;;;;;;;31.67;21.00;;;;;;;;;;6118439;23;20456;-80
2022/11/11 11:41:12;;;;;;;29.90;19.92;;;;;;;;;;6117665;23;20724;-79
2022/11/11 11:43:41;;;;;;;32.67;18.83;;;;;;;;;;6118020;23;20017;-80
2022/11/11 11:46:20;;;;;;;31.58;20.98;;;;;;;;;;6119137;23;20045;-80
2022/11/11 11:48:54;;;;;;;23.63;17.95;;;;;;;;;;6117120;23;20456;-79
2022/11/11 11:51:23;;;;;;;30.48;19.27;;;;;;;;;;6116910;23;20061;-79
2022/11/11 11:54:07;;;;;;;32.80;20.35;;;;;;;;;;6091703;23;20052;-79
2022/11/11 11:56:39;;;;;;;34.67;20.10;;;;;;;;;;6068662;23;20013;-79
2022/11/11 11:59:05;;;;;;;31.80;21.15;;;;;;;;;;6117063;23;20034;-79
2022/11/11 12:01:34;;;;;;;31.27;20.83;;;;;;;;;;6119052;23;20018;-80
2022/11/11 12:04:12;;;;;;;31.45;20.13;;;;;;;;;;6092460;23;20022;-80
2022/11/11 12:06:44;;;;;;;34.70;21.23;;;;;;;;;;6117731;23;20337;-80
2022/11/11 12:09:20;;;;;;;30.67;21.05;;;;;;;;;;6092432;23;20018;-79
2022/11/11 12:11:55;;;;;;;33.10;22.90;;;;;;;;;;6116560;23;20025;-79
2022/11/11 12:14:44;;;;;;;28.27;18.65;;;;;;;;;;6068195;23;20404;-79
2022/11/11 12:17:18;;;;;;;30.75;19.95;;;;;;;;;;6115797;23;20641;-80
2022/11/11 12:19:47;;;;;;;30.95;19.65;;;;;;;;;;6118187;23;20026;-80
2022/11/11 12:22:25;;;;;;;30.90;19.80;;;;;;;;;;6120426;23;20029;-80
2022/11/11 12:25:10;;;;;;;32.72;20.30;;;;;;;;;;6120147;23;20017;-79
2022/11/11 12:28:08;;;;;;;34.38;20.50;;;;;;;;;;6120174;23;20006;-83
2022/11/11 12:30:37;;;;;;;33.33;21.38;;;;;;;;;;6008154;23;20014;-82
2022/11/11 12:33:18;;;;;;;35.45;21.13;;;;;;;;;;6091913;23;20041;-82
2022/11/11 12:35:48;;;;;;;31.85;20.13;;;;;;;;;;6117270;23;20090;-82
2022/11/11 12:38:28;;;;;;;31.35;20.55;;;;;;;;;;6116393;23;20014;-81
2022/11/11 12:41:14;;;;;;;33.75;21.83;;;;;;;;;;6095849;23;20025;-81
2022/11/11 12:44:07;;;;;;;30.67;21.33;;;;;;;;;;5986175;23;20272;-81
2022/11/11 12:47:13;;;;;;;32.25;20.65;;;;;;;;;;6095303;23;20092;-81
2022/11/11 12:50:08;;;;;;;31.50;20.65;;;;;;;;;;6003757;23;20034;-82
2022/11/11 12:52:57;;;;;;;29.60;19.95;;;;;;;;;;5953766;23;20026;-82
2022/11/11 12:55:42;;;;;;;30.38;21.55;;;;;;;;;;5933668;23;20573;-82
2022/11/11 12:58:42;;;;;;;28.63;19.13;;;;;;;;;;5893422;24;20025;-82
2022/11/11 13:01:42;;;;;;;29.80;19.63;;;;;;;;;;5890466;24;20237;-81
2022/11/11 13:04:33;;;;;;;30.05;20.63;;;;;;;;;;5837967;24;20128;-81
2022/11/11 13:07:35;;;;;;;28.52;19.55;;;;;;;;;;5867249;24;20550;-81
2022/11/11 13:14:02;;;;;;;31.52;20.25;;;;;;;;;;5983484;23;20034;-81
2022/11/11 13:16:54;;;;;;;28.80;19.88;;;;;;;;;;5979479;23;20115;-81
2022/11/11 13:20:02;;;;;;;26.58;19.48;;;;;;;;;;6013896;23;20019;-81
2022/11/11 13:22:50;;;;;;;30.05;20.75;;;;;;;;;;6035708;23;20513;-81
2022/11/11 13:25:23;;;;;;;28.70;18.85;;;;;;;;;;6036473;23;20023;-82
2022/11/11 13:28:30;;;;;;;28.20;18.75;;;;;;;;;;6089343;23;20021;-82
2022/11/11 13:34:50;;;;;;;32.97;19.23;;;;;;;;;;6123355;23;20039;-67
2022/11/11 13:37:27;;;;;;;34.60;21.88;;;;;;;;;;6126085;23;20121;-67
2022/11/11 13:39:55;;;;;;;29.17;19.73;;;;;;;;;;6150870;23;20017;-67
2022/11/11 13:42:24;;;;;;;29.90;20.13;;;;;;;;;;6151822;23;20021;-67
2022/11/11 13:44:54;;;;;;;36.80;20.67;;;;;;;;;;6150959;23;20017;-67
2022/11/11 13:47:23;;;;;;;31.08;19.40;;;;;;;;;;6150520;23;20024;-67
2022/11/11 13:49:55;;;;;;;29.63;20.20;;;;;;;;;;6151103;23;20013;-66
2022/11/11 13:52:23;;;;;;;28.58;20.00;;;;;;;;;;6125994;23;20373;-67
2022/11/11 13:54:51;;;;;;;31.63;19.27;;;;;;;;;;6151107;23;20021;-66
2022/11/11 13:57:20;;;;;;;29.58;19.13;;;;;;;;;;6151367;23;20021;-67
2022/11/11 13:59:54;;;;;;;31.27;18.42;;;;;;;;;;6151714;23;20017;-67
2022/11/11 14:02:20;;;;;;;23.15;16.95;;;;;;;;;;6150890;23;20014;-67
2022/11/11 14:05:01;;;;;;;26.70;18.73;;;;;;;;;;6150223;23;20009;-66
2022/11/11 14:07:46;;;;;;;23.15;17.08;;;;;;;;;;6151723;23;20049;-67
2022/11/11 14:10:18;;;;;;;25.10;17.55;;;;;;;;;;6124651;23;20088;-67
2022/11/11 14:12:45;;;;;;;25.88;17.73;;;;;;;;;;6151733;23;20186;-67
2022/11/11 14:15:30;;;;;;;24.58;17.25;;;;;;;;;;6151289;23;20023;-67
2022/11/11 14:17:56;;;;;;;23.33;16.77;;;;;;;;;;6150315;23;20013;-67
2022/11/11 14:20:41;;;;;;;27.05;17.73;;;;;;;;;;6150887;23;20092;-67
2022/11/11 14:23:25;;;;;;;30.90;18.35;;;;;;;;;;6151155;23;20015;-67
2022/11/11 14:26:12;;;;;;;26.40;19.35;;;;;;;;;;6151105;23;20464;-67
2022/11/11 14:28:47;;;;;;;27.70;19.58;;;;;;;;;;6150609;23;20049;-67
2022/11/11 14:31:13;;;;;;;26.00;19.02;;;;;;;;;;6150928;23;20457;-66
2022/11/11 14:33:39;;;;;;;29.23;17.48;;;;;;;;;;6150449;23;20048;-67
2022/11/11 14:36:14;;;;;;;25.45;19.00;;;;;;;;;;6150381;23;20106;-67
2022/11/11 14:38:59;;;;;;;25.30;16.73;;;;;;;;;;6150809;23;20101;-66
2022/11/11 14:41:37;;;;;;;26.45;17.38;;;;;;;;;;6151452;23;20100;-67
2022/11/11 14:44:42;;;;;;;29.80;16.52;;;;;;;;;;6151561;23;20341;-66
2022/11/11 14:47:08;;;;;;;23.27;16.27;;;;;;;;;;6060075;23;20264;-67
2022/11/11 14:49:43;;;;;;;28.15;17.60;;;;;;;;;;6059645;23;20015;-67
2022/11/11 14:52:27;;;;;;;26.52;17.00;;;;;;;;;;6108361;23;20326;-67
2022/11/11 14:55:02;;;;;;;27.23;17.73;;;;;;;;;;6150320;23;20040;-67
2022/11/11 14:57:35;;;;;;;25.98;17.23;;;;;;;;;;6150938;23;20032;-67
2022/11/11 15:00:03;;;;;;;25.23;17.13;;;;;;;;;;6125466;23;20250;-67
2022/11/11 15:02:41;;;;;;;25.38;17.60;;;;;;;;;;6149651;23;20051;-67
2022/11/11 15:05:14;;;;;;;25.85;17.40;;;;;;;;;;6149940;23;20020;-67
2022/11/11 15:07:40;;;;;;;27.25;19.50;;;;;;;;;;6124968;23;20014;-67
2022/11/11 15:10:16;;;;;;;28.80;18.58;;;;;;;;;;6124615;23;20013;-67
2022/11/11 15:12:54;;;;;;;23.98;16.45;;;;;;;;;;6150419;23;20016;-67
2022/11/11 15:15:20;;;;;;;30.95;20.10;;;;;;;;;;6124557;23;20020;-67
2022/11/11 15:17:58;;;;;;;29.00;17.85;;;;;;;;;;6148802;23;20338;-67
2022/11/11 15:20:47;;;;;;;26.35;18.75;;;;;;;;;;6150057;23;20016;-67
2022/11/11 15:23:29;;;;;;;25.42;16.40;;;;;;;;;;6150231;23;20016;-67
2022/11/11 15:26:07;;;;;;;31.77;18.65;;;;;;;;;;6123296;23;20013;-67
2022/11/11 15:28:52;;;;;;;23.70;16.25;;;;;;;;;;6124017;23;20017;-67
2022/11/11 15:31:24;;;;;;;21.05;16.17;;;;;;;;;;6149824;23;20013;-66
2022/11/11 15:34:16;;;;;;;27.40;18.38;;;;;;;;;;6123782;23;20508;-67
2022/11/11 15:36:56;;;;;;;26.23;18.67;;;;;;;;;;6151075;23;20088;-66
2022/11/11 15:39:25;;;;;;;30.35;19.30;;;;;;;;;;6150643;23;20024;-67
2022/11/11 15:41:52;;;;;;;24.63;18.23;;;;;;;;;;6150520;23;20018;-67
2022/11/11 15:44:29;;;;;;;26.40;18.20;;;;;;;;;;6150075;23;20049;-66
2022/11/11 15:46:55;;;;;;;28.05;18.58;;;;;;;;;;6148815;23;20014;-67
2022/11/11 15:49:38;;;;;;;26.85;18.42;;;;;;;;;;6148439;23;20035;-67
2022/11/11 15:52:05;;;;;;;29.67;19.88;;;;;;;;;;6147292;23;20018;-67
2022/11/11 15:54:34;;;;;;;25.77;18.73;;;;;;;;;;6142341;23;20025;-67
2022/11/11 15:57:14;;;;;;;27.08;18.70;;;;;;;;;;6146184;23;20376;-67
2022/11/11 15:59:40;;;;;;;30.52;18.80;;;;;;;;;;6145194;23;20019;-67
2022/11/11 16:02:12;;;;;;;30.92;20.25;;;;;;;;;;6146021;23;20014;-67